createdAt,value
2019-02-26T00:00:26.179Z,100383.28
2019-02-26T00:02:53.502Z,100394.26
2019-02-26T00:05:22.040Z,100394.36
2019-02-26T00:07:51.142Z,100387.84
2019-02-26T00:10:22.283Z,100376.98
2019-02-26T00:12:46.164Z,100362.63
2019-02-26T00:15:12.790Z,100360.05
2019-02-26T00:17:41.195Z,100348.70
2019-02-26T00:20:08.465Z,100356.59
2019-02-26T00:22:36.726Z,100368.39
2019-02-26T00:25:06.263Z,100370.12
2019-02-26T00:27:34.657Z,100355.70
2019-02-26T00:30:00.974Z,100348.25
2019-02-26T00:32:27.545Z,100333.43
2019-02-26T00:34:55.833Z,100325.16
2019-02-26T00:37:24.225Z,100316.02
2019-02-26T00:39:51.766Z,100306.84
2019-02-26T00:42:21.536Z,100308.64
2019-02-26T00:44:51.352Z,100304.75
2019-02-26T00:47:15.712Z,100310.40
2019-02-26T00:49:44.075Z,100319.57
2019-02-26T00:52:11.614Z,100306.06
2019-02-26T00:54:38.928Z,100305.16
2019-02-26T00:57:06.458Z,100301.27
2019-02-26T01:02:01.944Z,100291.64
2019-02-26T01:04:28.520Z,100297.30
2019-02-26T01:06:56.754Z,100294.23
2019-02-26T01:09:25.116Z,100295.09
2019-02-26T01:11:52.357Z,100293.78
2019-02-26T01:14:20.408Z,100286.78
2019-02-26T01:16:48.377Z,100281.09
2019-02-26T01:19:15.782Z,100285.06
2019-02-26T01:21:43.288Z,100287.64
2019-02-26T01:24:09.867Z,100282.81
2019-02-26T01:26:36.447Z,100277.98
2019-02-26T01:29:03.015Z,100280.19
2019-02-26T01:31:31.553Z,100284.98
2019-02-26T01:33:57.910Z,100283.71
2019-02-26T01:36:25.421Z,100284.13
2019-02-26T01:38:53.159Z,100283.71
2019-02-26T01:41:21.002Z,100274.95
2019-02-26T01:43:48.229Z,100273.23
2019-02-26T01:46:16.959Z,100279.70
2019-02-26T01:48:43.121Z,100278.88
2019-02-26T01:51:09.691Z,100277.13
2019-02-26T01:53:36.271Z,100266.64
2019-02-26T01:56:05.106Z,100264.88
2019-02-26T01:58:33.442Z,100245.23
2019-02-26T02:00:59.452Z,100246.58
2019-02-26T02:03:27.828Z,100243.13
2019-02-26T02:05:54.861Z,100229.17
2019-02-26T02:08:24.378Z,100232.24
2019-02-26T02:10:53.658Z,100225.28
2019-02-26T02:13:18.098Z,100224.41
2019-02-26T02:15:46.468Z,100232.28
2019-02-26T02:18:13.172Z,100239.23
2019-02-26T02:20:39.781Z,100218.20
2019-02-26T02:23:07.098Z,100216.41
2019-02-26T02:25:36.122Z,100211.98
2019-02-26T02:28:04.407Z,100214.50
2019-02-26T02:30:31.774Z,100209.25
2019-02-26T02:33:00.109Z,100204.38
2019-02-26T02:35:27.113Z,100196.89
2019-02-26T02:37:56.255Z,100196.81
2019-02-26T02:40:22.000Z,100195.02
2019-02-26T02:42:49.257Z,100205.50
2019-02-26T02:45:19.611Z,100198.45
2019-02-26T02:47:44.539Z,100183.59
2019-02-26T02:50:12.641Z,100194.03
2019-02-26T02:52:39.449Z,100190.85
2019-02-26T02:55:06.974Z,100180.36
2019-02-26T02:57:34.489Z,100178.56
2019-02-26T03:00:02.920Z,100177.21
2019-02-26T03:02:30.742Z,100167.13
2019-02-26T03:04:57.352Z,100160.91
2019-02-26T03:07:26.740Z,100161.36
2019-02-26T03:09:52.259Z,100159.52
2019-02-26T03:12:18.852Z,100157.27
2019-02-26T03:14:45.435Z,100156.77
2019-02-26T03:17:14.775Z,100155.46
2019-02-26T03:19:41.574Z,100144.97
2019-02-26T03:22:09.788Z,100136.16
2019-02-26T03:24:37.005Z,100133.91
2019-02-26T03:27:03.620Z,100127.72
2019-02-26T03:29:30.194Z,100129.39
2019-02-26T03:31:56.805Z,100127.59
2019-02-26T03:34:25.330Z,100122.75
2019-02-26T03:36:51.777Z,100113.57
2019-02-26T03:39:18.354Z,100114.80
2019-02-26T03:41:46.048Z,100111.23
2019-02-26T03:44:13.248Z,100111.69
2019-02-26T03:46:39.864Z,100102.95
2019-02-26T03:49:06.442Z,100107.34
2019-02-26T03:51:33.051Z,100097.22
2019-02-26T03:53:59.629Z,100084.51
2019-02-26T03:56:26.239Z,100073.12
2019-02-26T03:58:57.019Z,100084.42
2019-02-26T04:01:21.638Z,100091.84
2019-02-26T04:03:48.307Z,100105.41
2019-02-26T04:06:14.917Z,100104.55
2019-02-26T04:08:42.337Z,100098.94
2019-02-26T04:11:09.795Z,100115.98
2019-02-26T04:13:36.368Z,100098.94
2019-02-26T04:16:04.564Z,100096.72
2019-02-26T04:18:34.199Z,100112.95
2019-02-26T04:21:03.234Z,100101.64
2019-02-26T04:23:28.013Z,100091.56
2019-02-26T04:25:56.869Z,100099.97
2019-02-26T04:28:27.377Z,100098.73
2019-02-26T04:30:52.445Z,100096.45
2019-02-26T04:33:19.280Z,100102.67
2019-02-26T04:35:47.884Z,100087.34
2019-02-26T04:38:14.274Z,100103.58
2019-02-26T04:40:41.082Z,100100.09
2019-02-26T04:43:10.135Z,100109.31
2019-02-26T04:45:36.041Z,100132.02
2019-02-26T04:48:02.649Z,100153.45
2019-02-26T04:50:32.382Z,100136.81
2019-02-26T04:53:01.503Z,100126.61
2019-02-26T04:55:29.027Z,100106.89
2019-02-26T04:57:54.243Z,100109.92
2019-02-26T05:00:20.894Z,100126.97
2019-02-26T05:02:47.466Z,100125.16
2019-02-26T05:05:14.049Z,100126.48
2019-02-26T05:07:42.300Z,100113.81
2019-02-26T05:10:08.915Z,100107.70
2019-02-26T05:12:37.864Z,100094.19
2019-02-26T05:15:03.806Z,100084.10
2019-02-26T05:17:33.163Z,100089.39
2019-02-26T05:19:58.682Z,100096.41
2019-02-26T05:22:27.650Z,100088.98
2019-02-26T05:24:53.568Z,100075.88
2019-02-26T05:27:22.706Z,100078.05
2019-02-26T05:29:49.635Z,100074.92
2019-02-26T05:32:16.747Z,100061.81
2019-02-26T05:34:45.961Z,100071.48
2019-02-26T05:37:13.802Z,100057.97
2019-02-26T05:39:40.650Z,100070.30
2019-02-26T05:42:08.230Z,100080.79
2019-02-26T05:44:34.818Z,100075.59
2019-02-26T05:47:01.790Z,100078.62
2019-02-26T05:49:28.504Z,100082.14
2019-02-26T05:51:56.855Z,100088.25
2019-02-26T05:54:24.499Z,100082.10
2019-02-26T05:56:51.227Z,100096.04
2019-02-26T05:59:18.698Z,100096.11
2019-02-26T06:01:47.461Z,100092.64
2019-02-26T06:04:15.574Z,100105.17
2019-02-26T06:06:42.809Z,100098.98
2019-02-26T06:09:09.418Z,100085.38
2019-02-26T06:11:38.634Z,100077.41
2019-02-26T06:14:09.092Z,100078.63
2019-02-26T06:16:32.637Z,100087.23
2019-02-26T06:18:59.258Z,100077.55
2019-02-26T06:21:26.180Z,100082.26
2019-02-26T06:23:52.801Z,100078.28
2019-02-26T06:26:19.417Z,100086.96
2019-02-26T06:28:48.041Z,100106.05
2019-02-26T06:31:16.654Z,100104.20
2019-02-26T06:33:43.659Z,100114.20
2019-02-26T06:36:10.948Z,100113.20
2019-02-26T06:38:37.522Z,100113.92
2019-02-26T06:41:04.102Z,100118.50
2019-02-26T06:43:30.998Z,100106.55
2019-02-26T06:45:57.646Z,100103.73
2019-02-26T06:48:26.793Z,100101.83
2019-02-26T06:50:52.520Z,100113.14
2019-02-26T06:53:21.521Z,100090.33
2019-02-26T06:55:47.483Z,100090.78
2019-02-26T06:58:14.051Z,100092.45
2019-02-26T07:00:41.475Z,100099.32
2019-02-26T07:03:08.593Z,100101.49
2019-02-26T07:05:35.165Z,100099.14
2019-02-26T07:08:02.630Z,100102.48
2019-02-26T07:10:31.367Z,100099.66
2019-02-26T07:12:58.365Z,100101.64
2019-02-26T07:15:28.757Z,100110.28
2019-02-26T07:17:53.255Z,100118.92
2019-02-26T07:20:19.834Z,100114.06
2019-02-26T07:22:48.619Z,100108.77
2019-02-26T07:25:16.632Z,100105.73
2019-02-26T07:27:43.013Z,100106.14
2019-02-26T07:30:09.588Z,100096.89
2019-02-26T07:32:38.244Z,100097.56
2019-02-26T07:35:06.385Z,100096.91
2019-02-26T07:37:34.035Z,100080.13
2019-02-26T07:40:03.235Z,100096.34
2019-02-26T07:42:32.761Z,100095.44
2019-02-26T07:44:57.742Z,100080.63
2019-02-26T07:47:24.786Z,100080.53
2019-02-26T07:49:56.520Z,100077.23
2019-02-26T07:52:21.578Z,100081.42
2019-02-26T07:54:50.143Z,100078.89
2019-02-26T07:57:18.247Z,100086.56
2019-02-26T07:59:47.681Z,100080.17
2019-02-26T08:02:14.240Z,100086.39
2019-02-26T08:04:41.841Z,100089.51
2019-02-26T08:07:09.128Z,100090.95
2019-02-26T08:09:35.723Z,100080.17
2019-02-26T08:12:04.248Z,100072.39
2019-02-26T08:14:30.593Z,100080.42
2019-02-26T08:16:59.557Z,100081.91
2019-02-26T08:19:29.446Z,100084.48
2019-02-26T08:21:54.946Z,100083.96
2019-02-26T08:24:24.495Z,100092.51
2019-02-26T08:26:52.742Z,100105.66
2019-02-26T08:29:21.093Z,100096.22
2019-02-26T08:31:49.512Z,100094.67
2019-02-26T08:34:15.975Z,100098.87
2019-02-26T08:36:46.184Z,100090.55
2019-02-26T08:39:14.943Z,100083.11
2019-02-26T08:41:39.239Z,100080.63
2019-02-26T08:44:05.827Z,100070.03
2019-02-26T08:46:32.431Z,100061.66
2019-02-26T08:49:07.859Z,100050.73
2019-02-26T08:51:27.378Z,100058.69
2019-02-26T08:53:55.277Z,100063.38
2019-02-26T08:56:23.922Z,100063.08
2019-02-26T08:58:50.590Z,100069.89
2019-02-26T09:01:17.191Z,100080.13
2019-02-26T09:03:43.787Z,100089.05
2019-02-26T09:06:13.887Z,100091.15
2019-02-26T09:08:43.016Z,100099.19
2019-02-26T09:11:10.712Z,100096.45
2019-02-26T09:13:38.868Z,100092.41
2019-02-26T09:16:07.850Z,100099.62
2019-02-26T09:18:37.485Z,100103.95
2019-02-26T09:21:02.311Z,100102.69
2019-02-26T09:23:30.546Z,100103.23
2019-02-26T09:25:59.635Z,100107.63
2019-02-26T09:28:27.162Z,100112.16
2019-02-26T09:30:56.409Z,100100.81
2019-02-26T09:33:25.057Z,100081.73
2019-02-26T09:35:52.145Z,100078.80
2019-02-26T09:38:20.776Z,100075.64
2019-02-26T09:40:48.105Z,100074.54
2019-02-26T09:43:17.281Z,100071.61
2019-02-26T09:45:45.734Z,100064.17
2019-02-26T09:48:12.963Z,100074.05
2019-02-26T09:50:41.564Z,100075.77
2019-02-26T09:53:08.725Z,100078.24
2019-02-26T09:55:35.301Z,100063.14
2019-02-26T09:58:02.641Z,100061.44
2019-02-26T10:00:29.731Z,100062.97
2019-02-26T10:02:56.399Z,100063.32
2019-02-26T10:05:22.979Z,100061.61
2019-02-26T10:07:52.308Z,100055.48
2019-02-26T10:10:17.872Z,100042.55
2019-02-26T10:12:44.443Z,100040.85
2019-02-26T10:15:11.016Z,100034.27
2019-02-26T10:17:40.024Z,100034.52
2019-02-26T10:20:08.623Z,100032.22
2019-02-26T10:22:36.307Z,100028.81
2019-02-26T10:25:02.527Z,100036.87
2019-02-26T10:27:33.607Z,100033.80
2019-02-26T10:29:57.426Z,100016.14
2019-02-26T10:32:24.246Z,100023.52
2019-02-26T10:34:52.329Z,100019.61
2019-02-26T10:37:18.944Z,100031.13
2019-02-26T10:39:47.929Z,100014.67
2019-02-26T10:42:13.867Z,100012.45
2019-02-26T10:44:42.078Z,100018.91
2019-02-26T10:47:10.560Z,100014.03
2019-02-26T10:49:37.057Z,100030.67
2019-02-26T10:52:03.730Z,100016.72
2019-02-26T10:54:34.612Z,100030.35
2019-02-26T10:57:00.470Z,100029.84
2019-02-26T10:59:26.942Z,100033.75
2019-02-26T11:01:55.311Z,100027.05
2019-02-26T11:04:21.870Z,100038.20
2019-02-26T11:06:48.489Z,100042.62
2019-02-26T11:09:18.328Z,100033.67
2019-02-26T11:11:43.394Z,100028.50
2019-02-26T11:14:10.674Z,100026.23
2019-02-26T11:16:39.055Z,100032.59
2019-02-26T11:19:07.520Z,100029.69
2019-02-26T11:21:34.157Z,100020.41
2019-02-26T11:24:03.055Z,100000.64
2019-02-26T11:26:30.088Z,99996.53
2019-02-26T11:28:57.425Z,100000.35
2019-02-26T11:31:25.460Z,100001.86
2019-02-26T11:33:52.339Z,99998.19
2019-02-26T11:36:18.903Z,99999.69
2019-02-26T11:38:47.091Z,99998.97
2019-02-26T11:41:13.856Z,99997.75
2019-02-26T11:43:40.435Z,100003.73
2019-02-26T11:46:08.736Z,100012.19
2019-02-26T11:48:35.485Z,100007.75
2019-02-26T11:51:02.070Z,100008.41
2019-02-26T11:53:29.882Z,100012.84
2019-02-26T11:55:59.151Z,100010.22
2019-02-26T11:58:26.914Z,100020.13
2019-02-26T12:00:53.679Z,100022.92
2019-02-26T12:03:22.840Z,100010.88
2019-02-26T12:08:34.021Z,99983.93
2019-02-26T12:13:28.897Z,99974.02
2019-02-26T12:15:55.473Z,99962.63
2019-02-26T12:18:22.468Z,99968.58
2019-02-26T12:20:49.210Z,99965.72
2019-02-26T12:23:16.908Z,99957.89
2019-02-26T12:25:44.074Z,99960.19
2019-02-26T12:28:11.564Z,99964.58
2019-02-26T12:30:41.458Z,99959.20
2019-02-26T12:33:09.824Z,99960.83
2019-02-26T12:35:36.207Z,99954.20
2019-02-26T12:38:17.397Z,99953.87
2019-02-26T12:40:32.321Z,99936.03
2019-02-26T12:43:01.825Z,99933.11
2019-02-26T12:45:28.553Z,99938.31
2019-02-26T12:47:55.603Z,99944.71
2019-02-26T12:50:23.803Z,99937.49
2019-02-26T12:52:51.574Z,99936.28
2019-02-26T12:55:18.815Z,99936.82
2019-02-26T12:57:47.259Z,99925.13
2019-02-26T13:00:16.338Z,99906.58
2019-02-26T13:02:43.331Z,99915.30
2019-02-26T13:05:13.408Z,99908.89
2019-02-26T13:07:38.693Z,99909.76
2019-02-26T13:10:05.265Z,99917.57
2019-02-26T13:12:32.534Z,99903.25
2019-02-26T13:15:03.184Z,99894.63
2019-02-26T13:17:31.549Z,99883.97
2019-02-26T13:19:58.960Z,99887.33
2019-02-26T13:22:24.219Z,99875.08
2019-02-26T13:24:50.792Z,99888.11
2019-02-26T13:27:17.805Z,99890.29
2019-02-26T13:29:53.166Z,99889.45
2019-02-26T13:32:16.864Z,99884.52
2019-02-26T13:34:41.027Z,99893.31
2019-02-26T13:37:07.603Z,99894.11
2019-02-26T13:39:38.557Z,99892.15
2019-02-26T13:42:05.542Z,99886.00
2019-02-26T13:44:30.798Z,99894.09
2019-02-26T13:46:57.372Z,99893.58
2019-02-26T13:49:23.970Z,99892.34
2019-02-26T13:51:50.556Z,99898.23
2019-02-26T13:54:17.167Z,99885.34
2019-02-26T13:56:43.799Z,99894.09
2019-02-26T13:59:10.518Z,99884.27
2019-02-26T14:01:37.172Z,99888.23
2019-02-26T14:04:03.783Z,99894.23
2019-02-26T14:06:30.343Z,99894.87
2019-02-26T14:08:57.062Z,99899.16
2019-02-26T14:11:23.660Z,99905.77
2019-02-26T14:13:50.259Z,99896.59
2019-02-26T14:16:16.842Z,99901.87
2019-02-26T14:18:43.429Z,99898.17
2019-02-26T14:21:10.389Z,99901.59
2019-02-26T14:23:37.008Z,99919.06
2019-02-26T14:26:03.608Z,99913.80
2019-02-26T14:28:30.209Z,99904.80
2019-02-26T14:30:56.785Z,99904.02
2019-02-26T14:33:23.383Z,99910.36
2019-02-26T14:35:50.239Z,99916.57
2019-02-26T14:38:16.811Z,99914.95
2019-02-26T14:40:43.403Z,99926.90
2019-02-26T14:43:09.995Z,99931.91
2019-02-26T14:45:36.572Z,99934.06
2019-02-26T14:48:03.147Z,99925.10
2019-02-26T14:50:29.712Z,99934.67
2019-02-26T14:52:56.292Z,99933.44
2019-02-26T14:55:22.882Z,99940.08
2019-02-26T14:57:49.531Z,99937.05
2019-02-26T15:00:16.235Z,99932.82
2019-02-26T15:02:42.811Z,99935.77
2019-02-26T15:05:09.401Z,99951.31
2019-02-26T15:07:35.980Z,99950.90
2019-02-26T15:10:02.612Z,99943.23
2019-02-26T15:12:29.173Z,99954.52
2019-02-26T15:14:55.785Z,99955.13
2019-02-26T15:17:24.499Z,99958.59
2019-02-26T15:19:53.221Z,99962.64
2019-02-26T15:22:19.384Z,99953.75
2019-02-26T15:24:45.999Z,99964.91
2019-02-26T15:27:12.564Z,99977.31
2019-02-26T15:29:39.162Z,99969.96
2019-02-26T15:32:05.735Z,99975.03
2019-02-26T15:34:32.347Z,99973.17
2019-02-26T15:36:58.919Z,99977.47
2019-02-26T15:39:25.633Z,99982.95
2019-02-26T15:41:52.223Z,99981.83
2019-02-26T15:44:18.809Z,99993.56
2019-02-26T15:46:45.394Z,99988.95
2019-02-26T15:49:12.166Z,99990.07
2019-02-26T15:51:38.731Z,99990.82
2019-02-26T15:54:05.367Z,100006.96
2019-02-26T15:56:31.959Z,100008.95
2019-02-26T15:58:58.635Z,100013.47
2019-02-26T16:01:25.216Z,100001.06
2019-02-26T16:03:51.802Z,100005.75
2019-02-26T16:06:18.381Z,100001.83
2019-02-26T16:08:44.956Z,100001.31
2019-02-26T16:11:13.160Z,99998.88
2019-02-26T16:13:40.004Z,99997.77
2019-02-26T16:16:06.593Z,99999.71
2019-02-26T16:18:33.164Z,99995.86
2019-02-26T16:20:59.742Z,99996.47
2019-02-26T16:23:26.316Z,99992.80
2019-02-26T16:25:52.889Z,100013.72
2019-02-26T16:28:19.703Z,100017.78
2019-02-26T16:30:46.256Z,100022.26
2019-02-26T16:33:13.678Z,100034.66
2019-02-26T16:35:40.990Z,100040.34
2019-02-26T16:38:07.579Z,100051.03
2019-02-26T16:40:34.158Z,100053.73
2019-02-26T16:43:01.112Z,100059.59
2019-02-26T16:45:27.692Z,100057.11
2019-02-26T16:47:54.273Z,100064.98
2019-02-26T16:50:20.883Z,100065.53
2019-02-26T16:52:47.465Z,100075.71
2019-02-26T16:55:17.115Z,100072.33
2019-02-26T16:57:43.325Z,100076.75
2019-02-26T17:00:09.939Z,100080.67
2019-02-26T17:02:36.675Z,100082.38
2019-02-26T17:05:03.329Z,100085.83
2019-02-26T17:07:29.910Z,100083.63
2019-02-26T17:09:56.536Z,100104.63
2019-02-26T17:12:23.270Z,100099.32
2019-02-26T17:14:50.692Z,100111.56
2019-02-26T17:17:17.850Z,100122.50
2019-02-26T17:19:48.340Z,100120.69
2019-02-26T17:22:12.755Z,100120.95
2019-02-26T17:24:39.374Z,100118.64
2019-02-26T17:27:06.493Z,100117.16
2019-02-26T17:29:33.352Z,100122.28
2019-02-26T17:32:03.984Z,100125.60
2019-02-26T17:34:28.224Z,100128.91
2019-02-26T17:36:54.809Z,100128.77
2019-02-26T17:39:23.698Z,100115.81
2019-02-26T17:41:49.695Z,100122.98
2019-02-26T17:44:16.282Z,100120.81
2019-02-26T17:46:42.868Z,100123.05
2019-02-26T17:49:09.439Z,100119.89
2019-02-26T17:51:36.019Z,100121.14
2019-02-26T17:54:04.017Z,100122.06
2019-02-26T17:56:30.924Z,100130.83
2019-02-26T17:58:57.503Z,100135.58
2019-02-26T18:01:24.077Z,100141.24
2019-02-26T18:03:50.663Z,100142.50
2019-02-26T18:06:17.257Z,100150.86
2019-02-26T18:08:45.909Z,100149.09
2019-02-26T18:11:12.560Z,100142.96
2019-02-26T18:13:39.135Z,100135.97
2019-02-26T18:16:09.242Z,100137.35
2019-02-26T18:18:34.390Z,100140.51
2019-02-26T18:21:05.635Z,100148.08
2019-02-26T18:23:29.960Z,100149.17
2019-02-26T18:25:56.543Z,100150.43
2019-02-26T18:28:23.120Z,100155.08
2019-02-26T18:30:49.693Z,100156.33
2019-02-26T18:33:16.270Z,100150.44
2019-02-26T18:35:42.843Z,100157.23
2019-02-26T18:38:09.421Z,100159.06
2019-02-26T18:40:35.990Z,100173.55
2019-02-26T18:43:02.566Z,100168.74
2019-02-26T18:45:29.221Z,100178.36
2019-02-26T18:47:55.787Z,100176.70
2019-02-26T18:50:22.392Z,100185.52
2019-02-26T18:52:48.962Z,100183.85
2019-02-26T18:55:15.581Z,100186.09
2019-02-26T18:57:43.696Z,100180.42
2019-02-26T19:00:10.486Z,100183.05
2019-02-26T19:02:37.065Z,100181.73
2019-02-26T19:05:03.674Z,100191.41
2019-02-26T19:07:33.141Z,100191.41
2019-02-26T19:09:58.569Z,100195.41
2019-02-26T19:12:25.184Z,100195.88
2019-02-26T19:14:51.779Z,100198.19
2019-02-26T19:17:18.359Z,100202.14
2019-02-26T19:19:44.931Z,100211.87
2019-02-26T19:22:11.522Z,100207.86
2019-02-26T19:24:38.105Z,100206.95
2019-02-26T19:27:04.763Z,100218.34
2019-02-26T19:29:32.033Z,100213.19
2019-02-26T19:31:58.833Z,100208.89
2019-02-26T19:34:30.224Z,100208.09
2019-02-26T19:36:56.950Z,100211.23
2019-02-26T19:39:23.538Z,100207.45
2019-02-26T19:41:50.142Z,100199.64
2019-02-26T19:44:16.722Z,100197.13
2019-02-26T19:46:43.326Z,100197.69
2019-02-26T19:49:09.925Z,100193.91
2019-02-26T19:51:36.526Z,100201.91
2019-02-26T19:54:04.727Z,100188.90
2019-02-26T19:56:31.460Z,100195.08
2019-02-26T19:58:58.043Z,100194.27
2019-02-26T20:03:56.384Z,100179.56
2019-02-26T20:06:23.571Z,100181.33
2019-02-26T20:08:51.321Z,100184.98
2019-02-26T20:11:22.579Z,100179.47
2019-02-26T20:13:47.589Z,100177.34
2019-02-26T20:16:14.201Z,100174.31
2019-02-26T20:18:41.015Z,100170.88
2019-02-26T20:21:07.900Z,100172.75
2019-02-26T20:23:34.477Z,100177.66
2019-02-26T20:26:01.106Z,100177.75
2019-02-26T20:28:27.683Z,100183.47
2019-02-26T20:30:54.278Z,100181.30
2019-02-26T20:33:20.857Z,100182.15
2019-02-26T20:35:47.436Z,100182.66
2019-02-26T20:38:14.023Z,100178.31
2019-02-26T20:40:40.597Z,100176.70
2019-02-26T20:43:07.170Z,100182.98
2019-02-26T20:45:33.879Z,100180.00
2019-02-26T20:48:03.913Z,100188.02
2019-02-26T20:50:28.761Z,100191.61
2019-02-26T20:52:55.372Z,100187.27
2019-02-26T20:55:22.222Z,100188.28
2019-02-26T20:57:48.791Z,100189.70
2019-02-26T21:00:15.368Z,100194.69
2019-02-26T21:02:41.963Z,100203.13
2019-02-26T21:05:08.542Z,100201.45
2019-02-26T21:07:35.423Z,100198.42
2019-02-26T21:10:04.033Z,100196.70
2019-02-26T21:12:30.336Z,100190.23
2019-02-26T21:14:56.913Z,100197.31
2019-02-26T21:17:25.576Z,100202.16
2019-02-26T21:19:51.839Z,100206.96
2019-02-26T21:22:19.737Z,100203.88
2019-02-26T21:24:47.532Z,100210.50
2019-02-26T21:27:14.254Z,100210.98
2019-02-26T21:29:41.635Z,100216.70
2019-02-26T21:32:08.334Z,100220.69
2019-02-26T21:34:34.912Z,100220.70
2019-02-26T21:37:01.557Z,100215.09
2019-02-26T21:39:28.124Z,100223.52
2019-02-26T21:41:56.372Z,100223.63
2019-02-26T21:44:23.092Z,100228.92
2019-02-26T21:46:49.792Z,100229.84
2019-02-26T21:49:16.362Z,100228.52
2019-02-26T21:51:42.962Z,100232.09
2019-02-26T21:54:09.647Z,100233.86
2019-02-26T21:56:36.267Z,100231.68
2019-02-26T21:59:02.839Z,100231.68
2019-02-26T22:01:29.443Z,100219.91
2019-02-26T22:03:58.482Z,100221.67
2019-02-26T22:06:24.436Z,100228.24
2019-02-26T22:08:51.022Z,100220.36
2019-02-26T22:11:18.491Z,100221.22
2019-02-26T22:13:45.854Z,100219.91
2019-02-26T22:16:14.945Z,100224.70
2019-02-26T22:18:40.734Z,100231.27
2019-02-26T22:21:07.307Z,100227.34
2019-02-26T22:23:34.823Z,100227.38
2019-02-26T22:26:01.446Z,100227.43
2019-02-26T22:28:28.009Z,100229.20
2019-02-26T22:30:55.946Z,100223.99
2019-02-26T22:33:23.048Z,100233.59
2019-02-26T22:35:49.619Z,100233.19
2019-02-26T22:38:16.193Z,100233.19
2019-02-26T22:40:42.799Z,100231.47
2019-02-26T22:43:13.432Z,100226.66
2019-02-26T22:45:37.659Z,100228.89
2019-02-26T22:48:04.243Z,100230.20
2019-02-26T22:50:30.818Z,100228.94
2019-02-26T22:52:57.737Z,100232.06
2019-02-26T22:55:24.444Z,100227.72
2019-02-26T22:57:51.018Z,100224.63
2019-02-26T23:00:17.588Z,100232.97
2019-02-26T23:02:44.187Z,100236.91
2019-02-26T23:05:10.759Z,100240.52
2019-02-26T23:07:39.467Z,100244.51
2019-02-26T23:10:05.664Z,100241.06
2019-02-26T23:12:32.285Z,100237.53
2019-02-26T23:14:58.858Z,100245.82
2019-02-26T23:17:25.463Z,100256.33
2019-02-26T23:19:52.041Z,100251.48
2019-02-26T23:22:22.980Z,100251.48
2019-02-26T23:24:46.935Z,100252.89
2019-02-26T23:27:15.117Z,100252.07
2019-02-26T23:29:41.842Z,100252.57
2019-02-26T23:32:08.443Z,100250.85
2019-02-26T23:34:35.006Z,100251.80
2019-02-26T23:37:01.621Z,100256.20
2019-02-26T23:39:28.205Z,100257.55
2019-02-26T23:41:54.775Z,100259.80
2019-02-26T23:44:21.368Z,100257.22
2019-02-26T23:46:47.944Z,100260.34
2019-02-26T23:49:14.930Z,100264.70
2019-02-26T23:51:41.556Z,100266.91
2019-02-26T23:54:08.184Z,100267.36
2019-02-26T23:56:34.753Z,100264.73
2019-02-26T23:59:01.706Z,100260.84
